sensor_id;sensor_type;location;lat;lon;timestamp;temperature;humidity
1025;DHT22;501;48.214;11.350;2023-01-31T00:01:25;2.80;52.40
1025;DHT22;501;48.214;11.350;2023-01-31T00:03:56;2.80;52.40
1025;DHT22;501;48.214;11.350;2023-01-31T00:06:28;2.80;52.40
1025;DHT22;501;48.214;11.350;2023-01-31T00:08:55;2.80;52.00
1025;DHT22;501;48.214;11.350;2023-01-31T00:11:23;2.90;51.60
1025;DHT22;501;48.214;11.350;2023-01-31T00:13:50;2.90;52.20
1025;DHT22;501;48.214;11.350;2023-01-31T00:16:17;2.90;52.50
1025;DHT22;501;48.214;11.350;2023-01-31T00:18:43;2.80;52.10
1025;DHT22;501;48.214;11.350;2023-01-31T00:21:10;2.90;52.10
1025;DHT22;501;48.214;11.350;2023-01-31T00:23:37;2.90;51.90
1025;DHT22;501;48.214;11.350;2023-01-31T00:26:17;2.80;51.80
1025;DHT22;501;48.214;11.350;2023-01-31T00:28:45;2.90;52.00
1025;DHT22;501;48.214;11.350;2023-01-31T00:31:12;2.90;51.50
1025;DHT22;501;48.214;11.350;2023-01-31T00:33:40;2.90;51.60
1025;DHT22;501;48.214;11.350;2023-01-31T00:36:17;2.80;52.10
1025;DHT22;501;48.214;11.350;2023-01-31T00:38:43;2.90;51.70
1025;DHT22;501;48.214;11.350;2023-01-31T00:41:10;2.90;51.70
1025;DHT22;501;48.214;11.350;2023-01-31T00:43:36;2.90;51.60
1025;DHT22;501;48.214;11.350;2023-01-31T00:46:02;2.80;52.10
1025;DHT22;501;48.214;11.350;2023-01-31T00:48:29;2.80;52.40
1025;DHT22;501;48.214;11.350;2023-01-31T00:50:54;2.80;52.40
1025;DHT22;501;48.214;11.350;2023-01-31T00:53:20;2.80;52.40
1025;DHT22;501;48.214;11.350;2023-01-31T00:55:54;2.80;52.40
1025;DHT22;501;48.214;11.350;2023-01-31T00:58:20;2.80;53.10
1025;DHT22;501;48.214;11.350;2023-01-31T01:00:46;2.80;52.40
1025;DHT22;501;48.214;11.350;2023-01-31T01:03:12;2.80;52.40
1025;DHT22;501;48.214;11.350;2023-01-31T01:05:38;2.80;52.40
1025;DHT22;501;48.214;11.350;2023-01-31T01:08:04;2.80;52.40
1025;DHT22;501;48.214;11.350;2023-01-31T01:10:29;2.80;52.50
1025;DHT22;501;48.214;11.350;2023-01-31T01:12:55;2.80;53.00
1025;DHT22;501;48.214;11.350;2023-01-31T01:15:20;2.80;52.80
1025;DHT22;501;48.214;11.350;2023-01-31T01:17:46;2.70;53.10
1025;DHT22;501;48.214;11.350;2023-01-31T01:20:12;2.70;53.00
1025;DHT22;501;48.214;11.350;2023-01-31T01:22:37;2.70;53.90
1025;DHT22;501;48.214;11.350;2023-01-31T01:25:04;2.70;53.50
1025;DHT22;501;48.214;11.350;2023-01-31T01:27:30;2.70;53.50
1025;DHT22;501;48.214;11.350;2023-01-31T01:29:56;2.70;53.20
1025;DHT22;501;48.214;11.350;2023-01-31T01:32:22;2.70;53.30
1025;DHT22;501;48.214;11.350;2023-01-31T01:34:48;2.70;53.40
1025;DHT22;501;48.214;11.350;2023-01-31T01:37:13;2.70;53.80
1025;DHT22;501;48.214;11.350;2023-01-31T01:39:51;2.60;54.40
1025;DHT22;501;48.214;11.350;2023-01-31T01:42:19;2.60;54.20
1025;DHT22;501;48.214;11.350;2023-01-31T01:44:49;2.60;54.20
1025;DHT22;501;48.214;11.350;2023-01-31T01:47:50;2.60;54.50
1025;DHT22;501;48.214;11.350;2023-01-31T01:50:33;2.60;54.70
1025;DHT22;501;48.214;11.350;2023-01-31T01:53:10;2.60;54.50
1025;DHT22;501;48.214;11.350;2023-01-31T01:55:43;2.60;54.40
1025;DHT22;501;48.214;11.350;2023-01-31T01:58:23;2.60;54.50
1025;DHT22;501;48.214;11.350;2023-01-31T02:00:50;2.60;54.90
1025;DHT22;501;48.214;11.350;2023-01-31T02:03:16;2.60;55.00
1025;DHT22;501;48.214;11.350;2023-01-31T02:05:51;2.60;54.50
1025;DHT22;501;48.214;11.350;2023-01-31T02:08:19;2.50;54.70
1025;DHT22;501;48.214;11.350;2023-01-31T02:10:56;2.50;55.20
1025;DHT22;501;48.214;11.350;2023-01-31T02:13:23;2.50;55.20
1025;DHT22;501;48.214;11.350;2023-01-31T02:15:49;2.50;55.30
1025;DHT22;501;48.214;11.350;2023-01-31T02:18:16;2.50;55.00
1025;DHT22;501;48.214;11.350;2023-01-31T02:27:19;2.50;55.20
1025;DHT22;501;48.214;11.350;2023-01-31T02:32:51;2.40;55.80
1025;DHT22;501;48.214;11.350;2023-01-31T02:38:15;2.50;55.20
1025;DHT22;501;48.214;11.350;2023-01-31T02:41:12;2.50;55.30
1025;DHT22;501;48.214;11.350;2023-01-31T02:47:26;2.50;55.20
1025;DHT22;501;48.214;11.350;2023-01-31T02:49:47;2.40;55.20
1025;DHT22;501;48.214;11.350;2023-01-31T02:52:17;2.40;54.90
1025;DHT22;501;48.214;11.350;2023-01-31T02:57:56;2.40;54.40
1025;DHT22;501;48.214;11.350;2023-01-31T03:00:24;2.40;54.80
1025;DHT22;501;48.214;11.350;2023-01-31T03:02:50;2.40;54.00
1025;DHT22;501;48.214;11.350;2023-01-31T03:05:17;2.40;53.90
1025;DHT22;501;48.214;11.350;2023-01-31T03:07:56;2.40;54.20
1025;DHT22;501;48.214;11.350;2023-01-31T03:16:18;2.30;54.90
1025;DHT22;501;48.214;11.350;2023-01-31T03:22:09;2.30;54.30
1025;DHT22;501;48.214;11.350;2023-01-31T03:24:37;2.30;53.90
1025;DHT22;501;48.214;11.350;2023-01-31T03:27:04;2.30;53.40
1025;DHT22;501;48.214;11.350;2023-01-31T03:29:33;2.30;53.60
1025;DHT22;501;48.214;11.350;2023-01-31T03:32:05;2.30;53.90
1025;DHT22;501;48.214;11.350;2023-01-31T03:34:33;2.30;54.10
1025;DHT22;501;48.214;11.350;2023-01-31T03:37:06;2.20;53.90
1025;DHT22;501;48.214;11.350;2023-01-31T03:42:07;2.20;53.80
1025;DHT22;501;48.214;11.350;2023-01-31T03:44:45;2.20;53.60
1025;DHT22;501;48.214;11.350;2023-01-31T03:47:21;2.20;54.10
1025;DHT22;501;48.214;11.350;2023-01-31T03:49:48;2.20;53.90
1025;DHT22;501;48.214;11.350;2023-01-31T03:52:19;2.10;54.00
1025;DHT22;501;48.214;11.350;2023-01-31T03:54:57;2.10;53.90
1025;DHT22;501;48.214;11.350;2023-01-31T03:57:29;2.10;54.30
1025;DHT22;501;48.214;11.350;2023-01-31T03:59:58;2.10;54.20
1025;DHT22;501;48.214;11.350;2023-01-31T04:02:36;2.00;54.50
1025;DHT22;501;48.214;11.350;2023-01-31T04:05:20;2.00;54.20
1025;DHT22;501;48.214;11.350;2023-01-31T04:07:47;2.00;54.80
1025;DHT22;501;48.214;11.350;2023-01-31T04:10:17;2.00;54.50
1025;DHT22;501;48.214;11.350;2023-01-31T04:12:44;2.00;54.50
1025;DHT22;501;48.214;11.350;2023-01-31T04:15:10;2.00;54.60
1025;DHT22;501;48.214;11.350;2023-01-31T04:17:36;2.00;54.40
1025;DHT22;501;48.214;11.350;2023-01-31T04:20:02;2.00;55.40
1025;DHT22;501;48.214;11.350;2023-01-31T04:22:28;2.00;55.20
1025;DHT22;501;48.214;11.350;2023-01-31T04:24:54;1.90;55.30
1025;DHT22;501;48.214;11.350;2023-01-31T04:27:19;1.90;54.90
1025;DHT22;501;48.214;11.350;2023-01-31T04:29:45;1.90;55.10
1025;DHT22;501;48.214;11.350;2023-01-31T04:32:10;1.90;55.30
1025;DHT22;501;48.214;11.350;2023-01-31T04:34:36;1.80;55.80
1025;DHT22;501;48.214;11.350;2023-01-31T04:37:02;1.90;55.80
1025;DHT22;501;48.214;11.350;2023-01-31T04:39:27;1.80;56.10
1025;DHT22;501;48.214;11.350;2023-01-31T04:41:53;1.90;55.40
1025;DHT22;501;48.214;11.350;2023-01-31T04:44:18;1.90;55.80
1025;DHT22;501;48.214;11.350;2023-01-31T04:46:44;1.90;55.40
1025;DHT22;501;48.214;11.350;2023-01-31T04:49:13;1.80;55.30
1025;DHT22;501;48.214;11.350;2023-01-31T04:51:39;1.80;55.50
1025;DHT22;501;48.214;11.350;2023-01-31T04:54:05;1.80;55.40
1025;DHT22;501;48.214;11.350;2023-01-31T04:56:31;1.80;55.30
1025;DHT22;501;48.214;11.350;2023-01-31T04:58:57;1.80;55.20
1025;DHT22;501;48.214;11.350;2023-01-31T05:01:23;1.80;55.30
1025;DHT22;501;48.214;11.350;2023-01-31T05:03:49;1.80;55.50
1025;DHT22;501;48.214;11.350;2023-01-31T05:06:15;1.80;54.90
1025;DHT22;501;48.214;11.350;2023-01-31T05:08:41;1.80;55.40
1025;DHT22;501;48.214;11.350;2023-01-31T05:11:07;1.80;55.80
1025;DHT22;501;48.214;11.350;2023-01-31T05:13:33;1.80;54.90
1025;DHT22;501;48.214;11.350;2023-01-31T05:16:05;1.80;55.20
1025;DHT22;501;48.214;11.350;2023-01-31T05:18:31;1.80;55.10
1025;DHT22;501;48.214;11.350;2023-01-31T05:20:56;1.80;55.10
1025;DHT22;501;48.214;11.350;2023-01-31T05:23:22;1.80;55.10
1025;DHT22;501;48.214;11.350;2023-01-31T05:25:49;1.80;54.70
1025;DHT22;501;48.214;11.350;2023-01-31T05:28:15;1.80;55.10
1025;DHT22;501;48.214;11.350;2023-01-31T05:30:40;1.80;54.70
1025;DHT22;501;48.214;11.350;2023-01-31T05:33:06;1.80;54.70
1025;DHT22;501;48.214;11.350;2023-01-31T05:35:32;1.80;54.60
1025;DHT22;501;48.214;11.350;2023-01-31T05:37:58;1.80;54.50
1025;DHT22;501;48.214;11.350;2023-01-31T05:40:24;1.80;54.70
1025;DHT22;501;48.214;11.350;2023-01-31T05:42:56;1.80;54.30
1025;DHT22;501;48.214;11.350;2023-01-31T05:45:24;1.80;54.20
1025;DHT22;501;48.214;11.350;2023-01-31T05:47:49;1.80;53.70
1025;DHT22;501;48.214;11.350;2023-01-31T05:50:16;1.80;54.00
1025;DHT22;501;48.214;11.350;2023-01-31T05:52:42;1.80;54.60
1025;DHT22;501;48.214;11.350;2023-01-31T05:55:07;1.80;54.10
1025;DHT22;501;48.214;11.350;2023-01-31T05:57:33;1.80;54.10
1025;DHT22;501;48.214;11.350;2023-01-31T05:59:59;1.70;54.20
1025;DHT22;501;48.214;11.350;2023-01-31T06:02:25;1.70;53.60
1025;DHT22;501;48.214;11.350;2023-01-31T06:04:50;1.80;53.50
1025;DHT22;501;48.214;11.350;2023-01-31T06:07:16;1.70;53.40
1025;DHT22;501;48.214;11.350;2023-01-31T06:09:42;1.70;53.20
1025;DHT22;501;48.214;11.350;2023-01-31T06:12:12;1.80;53.20
1025;DHT22;501;48.214;11.350;2023-01-31T06:14:39;1.70;53.50
1025;DHT22;501;48.214;11.350;2023-01-31T06:17:04;1.70;53.80
1025;DHT22;501;48.214;11.350;2023-01-31T06:19:30;1.70;53.40
1025;DHT22;501;48.214;11.350;2023-01-31T06:21:56;1.80;53.40
1025;DHT22;501;48.214;11.350;2023-01-31T06:24:22;1.80;52.30
1025;DHT22;501;48.214;11.350;2023-01-31T06:26:47;1.80;52.40
1025;DHT22;501;48.214;11.350;2023-01-31T06:29:13;1.80;52.60
1025;DHT22;501;48.214;11.350;2023-01-31T06:31:38;1.80;52.00
1025;DHT22;501;48.214;11.350;2023-01-31T06:34:07;1.80;52.40
1025;DHT22;501;48.214;11.350;2023-01-31T06:36:32;1.80;51.80
1025;DHT22;501;48.214;11.350;2023-01-31T06:38:58;1.80;51.90
1025;DHT22;501;48.214;11.350;2023-01-31T06:41:24;1.90;51.70
1025;DHT22;501;48.214;11.350;2023-01-31T06:43:50;1.80;51.60
1025;DHT22;501;48.214;11.350;2023-01-31T06:46:16;1.80;51.60
1025;DHT22;501;48.214;11.350;2023-01-31T06:48:42;1.90;51.70
1025;DHT22;501;48.214;11.350;2023-01-31T06:51:08;1.90;51.60
1025;DHT22;501;48.214;11.350;2023-01-31T06:53:34;1.90;51.60
1025;DHT22;501;48.214;11.350;2023-01-31T06:56:00;1.90;51.70
1025;DHT22;501;48.214;11.350;2023-01-31T06:58:25;1.90;51.70
1025;DHT22;501;48.214;11.350;2023-01-31T07:00:51;1.90;51.60
1025;DHT22;501;48.214;11.350;2023-01-31T07:03:16;1.90;51.70
1025;DHT22;501;48.214;11.350;2023-01-31T07:05:44;1.90;51.60
1025;DHT22;501;48.214;11.350;2023-01-31T07:08:10;1.90;51.00
1025;DHT22;501;48.214;11.350;2023-01-31T07:10:36;1.90;51.60
1025;DHT22;501;48.214;11.350;2023-01-31T07:13:02;1.90;51.60
1025;DHT22;501;48.214;11.350;2023-01-31T07:15:28;2.00;51.80
1025;DHT22;501;48.214;11.350;2023-01-31T07:17:57;1.90;51.70
1025;DHT22;501;48.214;11.350;2023-01-31T07:20:23;2.00;50.70
1025;DHT22;501;48.214;11.350;2023-01-31T07:22:56;2.00;50.60
1025;DHT22;501;48.214;11.350;2023-01-31T07:25:22;2.00;50.80
1025;DHT22;501;48.214;11.350;2023-01-31T07:27:48;2.00;50.60
1025;DHT22;501;48.214;11.350;2023-01-31T07:30:14;2.00;50.30
1025;DHT22;501;48.214;11.350;2023-01-31T07:32:39;2.00;50.20
1025;DHT22;501;48.214;11.350;2023-01-31T07:35:05;2.00;49.60
1025;DHT22;501;48.214;11.350;2023-01-31T07:37:31;2.00;49.80
1025;DHT22;501;48.214;11.350;2023-01-31T07:39:57;2.00;49.10
1025;DHT22;501;48.214;11.350;2023-01-31T07:42:22;2.00;49.30
1025;DHT22;501;48.214;11.350;2023-01-31T07:44:48;2.00;49.10
1025;DHT22;501;48.214;11.350;2023-01-31T07:47:14;2.00;48.80
1025;DHT22;501;48.214;11.350;2023-01-31T07:49:39;2.00;48.90
1025;DHT22;501;48.214;11.350;2023-01-31T07:52:05;2.00;49.30
1025;DHT22;501;48.214;11.350;2023-01-31T07:54:30;2.00;49.30
1025;DHT22;501;48.214;11.350;2023-01-31T07:56:56;2.00;48.90
1025;DHT22;501;48.214;11.350;2023-01-31T07:59:22;2.10;48.60
1025;DHT22;501;48.214;11.350;2023-01-31T08:01:47;2.10;48.80
1025;DHT22;501;48.214;11.350;2023-01-31T08:04:33;2.10;48.60
1025;DHT22;501;48.214;11.350;2023-01-31T08:06:59;2.20;48.60
1025;DHT22;501;48.214;11.350;2023-01-31T08:09:27;2.10;46.70
1025;DHT22;501;48.214;11.350;2023-01-31T08:11:53;2.10;47.10
1025;DHT22;501;48.214;11.350;2023-01-31T08:14:19;2.10;47.50
1025;DHT22;501;48.214;11.350;2023-01-31T08:16:50;2.10;46.30
1025;DHT22;501;48.214;11.350;2023-01-31T08:19:16;2.20;46.90
1025;DHT22;501;48.214;11.350;2023-01-31T08:21:41;2.20;46.70
1025;DHT22;501;48.214;11.350;2023-01-31T08:24:07;2.20;47.00
1025;DHT22;501;48.214;11.350;2023-01-31T08:26:33;2.20;46.50
1025;DHT22;501;48.214;11.350;2023-01-31T08:28:59;2.20;46.30
1025;DHT22;501;48.214;11.350;2023-01-31T08:31:26;2.30;45.90
1025;DHT22;501;48.214;11.350;2023-01-31T08:33:53;2.30;45.90
1025;DHT22;501;48.214;11.350;2023-01-31T08:36:25;2.30;46.20
1025;DHT22;501;48.214;11.350;2023-01-31T08:38:51;2.30;45.60
1025;DHT22;501;48.214;11.350;2023-01-31T08:41:19;2.40;44.80
1025;DHT22;501;48.214;11.350;2023-01-31T08:43:45;2.40;44.50
1025;DHT22;501;48.214;11.350;2023-01-31T08:46:11;2.40;44.70
1025;DHT22;501;48.214;11.350;2023-01-31T08:48:38;2.40;44.30
1025;DHT22;501;48.214;11.350;2023-01-31T08:51:05;2.50;44.20
1025;DHT22;501;48.214;11.350;2023-01-31T08:53:31;2.50;44.40
1025;DHT22;501;48.214;11.350;2023-01-31T08:56:02;2.50;43.70
1025;DHT22;501;48.214;11.350;2023-01-31T08:58:33;2.50;43.60
1025;DHT22;501;48.214;11.350;2023-01-31T09:01:14;2.60;43.70
1025;DHT22;501;48.214;11.350;2023-01-31T09:03:41;2.60;43.00
1025;DHT22;501;48.214;11.350;2023-01-31T09:06:10;2.60;43.00
1025;DHT22;501;48.214;11.350;2023-01-31T09:08:36;2.60;43.20
1025;DHT22;501;48.214;11.350;2023-01-31T09:11:02;2.70;43.20
1025;DHT22;501;48.214;11.350;2023-01-31T09:13:28;2.70;42.60
1025;DHT22;501;48.214;11.350;2023-01-31T09:15:59;2.80;42.10
1025;DHT22;501;48.214;11.350;2023-01-31T09:18:25;2.80;42.30
1025;DHT22;501;48.214;11.350;2023-01-31T09:20:51;2.80;41.80
1025;DHT22;501;48.214;11.350;2023-01-31T09:23:17;2.90;42.00
1025;DHT22;501;48.214;11.350;2023-01-31T09:25:51;2.90;41.50
1025;DHT22;501;48.214;11.350;2023-01-31T09:28:17;3.00;41.60
1025;DHT22;501;48.214;11.350;2023-01-31T09:30:42;3.00;40.90
1025;DHT22;501;48.214;11.350;2023-01-31T09:33:08;3.00;41.00
1025;DHT22;501;48.214;11.350;2023-01-31T09:35:33;3.10;41.50
1025;DHT22;501;48.214;11.350;2023-01-31T09:37:59;3.20;40.50
1025;DHT22;501;48.214;11.350;2023-01-31T09:40:26;3.20;40.00
1025;DHT22;501;48.214;11.350;2023-01-31T09:42:54;3.30;40.50
1025;DHT22;501;48.214;11.350;2023-01-31T09:45:32;3.40;39.40
1025;DHT22;501;48.214;11.350;2023-01-31T09:48:00;3.40;39.40
1025;DHT22;501;48.214;11.350;2023-01-31T09:50:39;3.40;38.90
1025;DHT22;501;48.214;11.350;2023-01-31T09:53:05;3.40;39.00
1025;DHT22;501;48.214;11.350;2023-01-31T10:07:20;3.30;38.30
1025;DHT22;501;48.214;11.350;2023-01-31T10:10:09;3.30;38.10
1025;DHT22;501;48.214;11.350;2023-01-31T10:12:38;3.30;37.90
1025;DHT22;501;48.214;11.350;2023-01-31T10:15:12;3.30;37.00
1025;DHT22;501;48.214;11.350;2023-01-31T10:17:51;3.30;37.70
1025;DHT22;501;48.214;11.350;2023-01-31T10:23:13;3.30;37.60
1025;DHT22;501;48.214;11.350;2023-01-31T10:25:51;3.30;37.80
1025;DHT22;501;48.214;11.350;2023-01-31T10:28:37;3.40;37.60
1025;DHT22;501;48.214;11.350;2023-01-31T10:39:14;3.80;35.90
1025;DHT22;501;48.214;11.350;2023-01-31T10:44:23;4.00;34.30
1025;DHT22;501;48.214;11.350;2023-01-31T10:46:52;4.00;34.70
1025;DHT22;501;48.214;11.350;2023-01-31T10:49:22;4.00;33.60
1025;DHT22;501;48.214;11.350;2023-01-31T10:52:02;4.10;33.70
1025;DHT22;501;48.214;11.350;2023-01-31T10:57:14;4.00;33.80
1025;DHT22;501;48.214;11.350;2023-01-31T10:59:43;4.00;35.10
1025;DHT22;501;48.214;11.350;2023-01-31T11:02:22;4.10;34.50
1025;DHT22;501;48.214;11.350;2023-01-31T11:04:50;4.10;34.40
1025;DHT22;501;48.214;11.350;2023-01-31T11:07:17;4.10;34.90
1025;DHT22;501;48.214;11.350;2023-01-31T11:09:51;4.10;35.20
1025;DHT22;501;48.214;11.350;2023-01-31T11:12:38;4.20;35.30
1025;DHT22;501;48.214;11.350;2023-01-31T11:15:15;4.20;36.90
1025;DHT22;501;48.214;11.350;2023-01-31T11:17:42;4.30;34.80
1025;DHT22;501;48.214;11.350;2023-01-31T11:20:33;4.20;35.40
1025;DHT22;501;48.214;11.350;2023-01-31T11:23:01;4.20;35.00
1025;DHT22;501;48.214;11.350;2023-01-31T11:25:30;4.30;35.90
1025;DHT22;501;48.214;11.350;2023-01-31T11:27:59;4.20;35.20
1025;DHT22;501;48.214;11.350;2023-01-31T11:30:28;4.30;35.10
1025;DHT22;501;48.214;11.350;2023-01-31T11:32:55;4.30;35.90
1025;DHT22;501;48.214;11.350;2023-01-31T11:35:30;4.30;36.30
1025;DHT22;501;48.214;11.350;2023-01-31T11:37:57;4.30;36.30
1025;DHT22;501;48.214;11.350;2023-01-31T11:43:00;4.40;36.40
1025;DHT22;501;48.214;11.350;2023-01-31T11:45:36;4.30;36.30
1025;DHT22;501;48.214;11.350;2023-01-31T11:48:17;4.40;36.40
1025;DHT22;501;48.214;11.350;2023-01-31T11:50:49;4.30;36.30
1025;DHT22;501;48.214;11.350;2023-01-31T11:53:19;4.30;36.40
1025;DHT22;501;48.214;11.350;2023-01-31T11:55:47;4.30;36.30
1025;DHT22;501;48.214;11.350;2023-01-31T11:58:20;4.30;36.30
1025;DHT22;501;48.214;11.350;2023-01-31T12:03:19;4.30;36.30
1025;DHT22;501;48.214;11.350;2023-01-31T12:05:49;4.20;36.30
1025;DHT22;501;48.214;11.350;2023-01-31T12:11:04;4.20;37.40
1025;DHT22;501;48.214;11.350;2023-01-31T12:13:29;4.20;37.00
1025;DHT22;501;48.214;11.350;2023-01-31T12:16:01;4.20;37.60
1025;DHT22;501;48.214;11.350;2023-01-31T12:21:23;4.10;38.20
1025;DHT22;501;48.214;11.350;2023-01-31T12:26:56;4.10;38.20
1025;DHT22;501;48.214;11.350;2023-01-31T12:29:54;4.10;38.30
1025;DHT22;501;48.214;11.350;2023-01-31T12:33:08;4.00;38.80
1025;DHT22;501;48.214;11.350;2023-01-31T12:57:29;4.60;39.00
1025;DHT22;501;48.214;11.350;2023-01-31T13:00:36;4.80;37.70
1025;DHT22;501;48.214;11.350;2023-01-31T13:05:52;4.90;38.50
1025;DHT22;501;48.214;11.350;2023-01-31T13:08:25;5.10;37.90
1025;DHT22;501;48.214;11.350;2023-01-31T13:11:07;5.10;37.00
1025;DHT22;501;48.214;11.350;2023-01-31T13:13:43;5.30;36.80
1025;DHT22;501;48.214;11.350;2023-01-31T13:16:23;5.60;37.50
1025;DHT22;501;48.214;11.350;2023-01-31T13:18:54;5.70;34.90
1025;DHT22;501;48.214;11.350;2023-01-31T13:21:23;5.80;34.60
1025;DHT22;501;48.214;11.350;2023-01-31T13:24:12;5.70;35.10
1025;DHT22;501;48.214;11.350;2023-01-31T13:26:51;5.50;35.50
1025;DHT22;501;48.214;11.350;2023-01-31T13:29:26;5.40;35.80
1025;DHT22;501;48.214;11.350;2023-01-31T13:31:56;5.20;36.00
1025;DHT22;501;48.214;11.350;2023-01-31T13:34:30;5.10;37.00
1025;DHT22;501;48.214;11.350;2023-01-31T13:37:10;5.00;36.70
1025;DHT22;501;48.214;11.350;2023-01-31T13:39:43;4.90;36.80
1025;DHT22;501;48.214;11.350;2023-01-31T13:42:13;4.80;36.80
1025;DHT22;501;48.214;11.350;2023-01-31T13:44:43;4.70;36.70
1025;DHT22;501;48.214;11.350;2023-01-31T13:47:24;4.60;36.60
1025;DHT22;501;48.214;11.350;2023-01-31T13:49:51;4.60;36.60
1025;DHT22;501;48.214;11.350;2023-01-31T13:52:22;4.50;36.90
1025;DHT22;501;48.214;11.350;2023-01-31T13:54:54;4.50;37.10
1025;DHT22;501;48.214;11.350;2023-01-31T13:57:39;4.50;36.80
1025;DHT22;501;48.214;11.350;2023-01-31T14:00:41;4.50;36.80
1025;DHT22;501;48.214;11.350;2023-01-31T14:16:33;4.30;38.20
1025;DHT22;501;48.214;11.350;2023-01-31T14:19:00;4.30;37.60
1025;DHT22;501;48.214;11.350;2023-01-31T14:23:59;4.30;38.20
1025;DHT22;501;48.214;11.350;2023-01-31T14:29:18;4.30;37.60
1025;DHT22;501;48.214;11.350;2023-01-31T14:31:45;4.30;37.30
1025;DHT22;501;48.214;11.350;2023-01-31T14:34:27;4.30;37.80
1025;DHT22;501;48.214;11.350;2023-01-31T14:42:25;4.30;37.00
1025;DHT22;501;48.214;11.350;2023-01-31T14:48:24;4.30;37.40
1025;DHT22;501;48.214;11.350;2023-01-31T14:58:59;4.30;36.70
1025;DHT22;501;48.214;11.350;2023-01-31T15:01:33;4.30;37.00
1025;DHT22;501;48.214;11.350;2023-01-31T15:03:59;4.30;37.60
1025;DHT22;501;48.214;11.350;2023-01-31T15:06:34;4.30;37.50
1025;DHT22;501;48.214;11.350;2023-01-31T15:09:35;4.30;36.50
1025;DHT22;501;48.214;11.350;2023-01-31T15:12:01;4.20;36.60
1025;DHT22;501;48.214;11.350;2023-01-31T15:17:00;4.20;36.20
1025;DHT22;501;48.214;11.350;2023-01-31T15:19:32;4.20;37.40
1025;DHT22;501;48.214;11.350;2023-01-31T15:22:03;4.10;37.40
1025;DHT22;501;48.214;11.350;2023-01-31T15:27:00;4.10;38.20
1025;DHT22;501;48.214;11.350;2023-01-31T15:29:59;4.10;38.20
1025;DHT22;501;48.214;11.350;2023-01-31T15:32:42;4.10;38.40
1025;DHT22;501;48.214;11.350;2023-01-31T15:35:29;4.10;37.90
1025;DHT22;501;48.214;11.350;2023-01-31T15:38:14;4.10;38.60
1025;DHT22;501;48.214;11.350;2023-01-31T15:40:40;4.10;38.20
1025;DHT22;501;48.214;11.350;2023-01-31T15:43:26;4.00;38.20
1025;DHT22;501;48.214;11.350;2023-01-31T15:45:52;4.10;38.80
1025;DHT22;501;48.214;11.350;2023-01-31T15:48:19;4.10;38.40
1025;DHT22;501;48.214;11.350;2023-01-31T15:50:54;4.10;38.20
1025;DHT22;501;48.214;11.350;2023-01-31T15:53:26;4.00;38.50
1025;DHT22;501;48.214;11.350;2023-01-31T15:55:54;4.10;38.60
1025;DHT22;501;48.214;11.350;2023-01-31T15:58:26;4.00;38.60
1025;DHT22;501;48.214;11.350;2023-01-31T16:00:55;4.00;38.70
1025;DHT22;501;48.214;11.350;2023-01-31T16:03:22;4.00;39.00
1025;DHT22;501;48.214;11.350;2023-01-31T16:05:51;4.00;39.50
1025;DHT22;501;48.214;11.350;2023-01-31T16:10:53;4.00;38.50
1025;DHT22;501;48.214;11.350;2023-01-31T16:13:19;4.00;38.60
1025;DHT22;501;48.214;11.350;2023-01-31T16:15:46;4.00;39.10
1025;DHT22;501;48.214;11.350;2023-01-31T16:18:12;4.00;39.70
1025;DHT22;501;48.214;11.350;2023-01-31T16:23:29;4.00;39.10
1025;DHT22;501;48.214;11.350;2023-01-31T16:26:04;4.00;39.50
1025;DHT22;501;48.214;11.350;2023-01-31T16:31:12;3.90;39.50
1025;DHT22;501;48.214;11.350;2023-01-31T16:33:47;3.90;39.90
1025;DHT22;501;48.214;11.350;2023-01-31T16:36:14;3.90;40.10
1025;DHT22;501;48.214;11.350;2023-01-31T16:38:41;3.90;40.00
1025;DHT22;501;48.214;11.350;2023-01-31T16:41:10;3.90;39.90
1025;DHT22;501;48.214;11.350;2023-01-31T16:43:40;3.90;39.60
1025;DHT22;501;48.214;11.350;2023-01-31T16:46:36;3.90;39.30
1025;DHT22;501;48.214;11.350;2023-01-31T16:49:16;3.90;39.30
1025;DHT22;501;48.214;11.350;2023-01-31T16:51:43;3.90;38.80
1025;DHT22;501;48.214;11.350;2023-01-31T16:56:46;4.00;38.80
1025;DHT22;501;48.214;11.350;2023-01-31T17:04:47;4.00;39.80
1025;DHT22;501;48.214;11.350;2023-01-31T17:07:20;4.00;39.60
1025;DHT22;501;48.214;11.350;2023-01-31T17:09:47;3.90;39.30
1025;DHT22;501;48.214;11.350;2023-01-31T17:12:20;4.00;39.30
1025;DHT22;501;48.214;11.350;2023-01-31T17:14:46;4.00;38.80
1025;DHT22;501;48.214;11.350;2023-01-31T17:17:14;4.00;38.60
1025;DHT22;501;48.214;11.350;2023-01-31T17:19:39;4.00;39.00
1025;DHT22;501;48.214;11.350;2023-01-31T17:22:05;4.00;39.10
1025;DHT22;501;48.214;11.350;2023-01-31T17:24:31;4.00;39.40
1025;DHT22;501;48.214;11.350;2023-01-31T17:26:56;3.90;39.40
1025;DHT22;501;48.214;11.350;2023-01-31T17:29:22;4.00;38.60
1025;DHT22;501;48.214;11.350;2023-01-31T17:31:50;4.00;38.80
1025;DHT22;501;48.214;11.350;2023-01-31T17:34:16;4.00;38.60
1025;DHT22;501;48.214;11.350;2023-01-31T17:36:43;4.00;39.30
1025;DHT22;501;48.214;11.350;2023-01-31T17:39:08;4.00;39.10
1025;DHT22;501;48.214;11.350;2023-01-31T17:41:34;4.00;39.10
1025;DHT22;501;48.214;11.350;2023-01-31T17:44:01;4.00;39.40
1025;DHT22;501;48.214;11.350;2023-01-31T17:46:27;4.00;39.20
1025;DHT22;501;48.214;11.350;2023-01-31T17:48:55;4.00;38.50
1025;DHT22;501;48.214;11.350;2023-01-31T17:51:22;4.00;38.60
1025;DHT22;501;48.214;11.350;2023-01-31T17:53:48;4.00;38.70
1025;DHT22;501;48.214;11.350;2023-01-31T17:56:14;4.00;39.00
1025;DHT22;501;48.214;11.350;2023-01-31T17:58:39;4.00;38.00
1025;DHT22;501;48.214;11.350;2023-01-31T18:01:09;4.00;38.00
1025;DHT22;501;48.214;11.350;2023-01-31T18:03:35;3.90;38.00
1025;DHT22;501;48.214;11.350;2023-01-31T18:06:05;4.00;38.30
1025;DHT22;501;48.214;11.350;2023-01-31T18:08:31;4.00;38.30
1025;DHT22;501;48.214;11.350;2023-01-31T18:11:05;4.00;38.10
1025;DHT22;501;48.214;11.350;2023-01-31T18:13:30;4.00;38.30
1025;DHT22;501;48.214;11.350;2023-01-31T18:16:05;3.90;38.10
1025;DHT22;501;48.214;11.350;2023-01-31T18:18:31;3.90;38.20
1025;DHT22;501;48.214;11.350;2023-01-31T18:20:56;3.90;38.00
1025;DHT22;501;48.214;11.350;2023-01-31T18:23:22;3.90;38.00
1025;DHT22;501;48.214;11.350;2023-01-31T18:25:48;3.90;37.80
1025;DHT22;501;48.214;11.350;2023-01-31T18:28:13;3.90;37.70
1025;DHT22;501;48.214;11.350;2023-01-31T18:30:39;4.00;37.80
1025;DHT22;501;48.214;11.350;2023-01-31T18:33:04;3.90;38.10
1025;DHT22;501;48.214;11.350;2023-01-31T18:35:30;3.90;37.90
1025;DHT22;501;48.214;11.350;2023-01-31T18:37:56;3.90;37.90
1025;DHT22;501;48.214;11.350;2023-01-31T18:40:21;3.90;38.00
1025;DHT22;501;48.214;11.350;2023-01-31T18:42:47;3.90;37.60
1025;DHT22;501;48.214;11.350;2023-01-31T18:45:13;3.90;37.90
1025;DHT22;501;48.214;11.350;2023-01-31T18:47:38;3.90;37.90
1025;DHT22;501;48.214;11.350;2023-01-31T18:50:04;4.00;38.20
1025;DHT22;501;48.214;11.350;2023-01-31T18:52:30;4.00;38.30
1025;DHT22;501;48.214;11.350;2023-01-31T18:54:56;3.90;38.00
1025;DHT22;501;48.214;11.350;2023-01-31T18:57:21;4.00;37.80
1025;DHT22;501;48.214;11.350;2023-01-31T18:59:47;4.00;37.70
1025;DHT22;501;48.214;11.350;2023-01-31T19:02:12;3.90;37.80
1025;DHT22;501;48.214;11.350;2023-01-31T19:04:38;4.00;38.00
1025;DHT22;501;48.214;11.350;2023-01-31T19:07:03;3.90;37.90